createdAt,value
2022-11-28T00:01:37.840Z,13.38
2022-11-28T00:04:07.340Z,13.50
2022-11-28T00:06:39.413Z,8.43
2022-11-28T00:09:08.357Z,11.18
2022-11-28T00:11:35.209Z,10.80
2022-11-28T00:14:02.374Z,11.55
2022-11-28T00:16:29.287Z,10.05
2022-11-28T00:18:56.180Z,13.35
2022-11-28T00:21:24.096Z,13.82
2022-11-28T00:23:52.024Z,10.18
2022-11-28T00:26:30.193Z,11.18
2022-11-28T00:28:57.833Z,13.10
2022-11-28T00:31:28.992Z,12.10
2022-11-28T00:33:56.832Z,14.63
2022-11-28T00:36:25.052Z,11.23
2022-11-28T00:38:52.432Z,15.18
2022-11-28T00:41:24.147Z,13.88
2022-11-28T00:43:52.211Z,11.27
2022-11-28T00:46:20.872Z,12.93
2022-11-28T00:48:47.902Z,11.98
2022-11-28T00:51:18.682Z,9.10
2022-11-28T00:53:48.259Z,12.85
2022-11-28T00:56:20.794Z,11.93
2022-11-28T00:58:49.741Z,16.08
2022-11-28T01:01:26.615Z,13.25
2022-11-28T01:03:56.268Z,11.30
2022-11-28T01:06:30.656Z,12.60
2022-11-28T01:09:01.415Z,9.27
2022-11-28T01:11:29.873Z,10.00
2022-11-28T01:14:00.555Z,8.30
2022-11-28T01:16:29.150Z,9.15
2022-11-28T01:18:56.161Z,17.52
2022-11-28T01:21:23.550Z,11.07
2022-11-28T01:23:50.881Z,10.20
2022-11-28T01:26:23.562Z,9.73
2022-11-28T01:28:51.044Z,7.20
2022-11-28T01:31:25.718Z,6.30
2022-11-28T01:33:53.267Z,8.13
2022-11-28T01:36:22.668Z,6.82
2022-11-28T01:38:50.528Z,5.57
2022-11-28T01:41:21.980Z,11.93
2022-11-28T01:44:21.386Z,10.60
2022-11-28T01:46:48.192Z,8.32
2022-11-28T01:49:28.290Z,11.32
2022-11-28T01:52:03.484Z,12.48
2022-11-28T01:54:32.659Z,10.52
2022-11-28T01:57:06.273Z,6.95
2022-11-28T01:59:43.262Z,9.05
2022-11-28T02:02:20.376Z,10.10
2022-11-28T02:04:48.629Z,8.43
2022-11-28T02:07:15.568Z,9.65
2022-11-28T02:09:42.379Z,9.13
2022-11-28T02:12:43.078Z,8.93
2022-11-28T02:15:40.704Z,10.98
2022-11-28T02:18:31.576Z,7.95
2022-11-28T02:21:24.946Z,8.50
2022-11-28T02:24:54.498Z,8.00
2022-11-28T02:27:51.644Z,9.93
2022-11-28T02:30:34.437Z,10.00
2022-11-28T02:33:45.356Z,10.07
2022-11-28T02:36:47.530Z,9.65
2022-11-28T02:39:47.206Z,8.93
2022-11-28T02:42:51.700Z,9.38
2022-11-28T02:45:32.053Z,8.43
2022-11-28T02:48:18.385Z,8.52
2022-11-28T02:51:06.959Z,10.18
2022-11-28T02:53:36.648Z,6.88
2022-11-28T02:56:04.148Z,5.72
2022-11-28T02:58:30.871Z,10.02
2022-11-28T03:00:57.868Z,9.63
2022-11-28T03:04:05.207Z,8.30
2022-11-28T03:06:49.621Z,6.43
2022-11-28T03:09:40.308Z,5.47
2022-11-28T03:12:32.148Z,7.93
2022-11-28T03:15:04.579Z,8.10
2022-11-28T03:17:52.440Z,7.28
2022-11-28T03:20:40.960Z,6.47
2022-11-28T03:23:26.953Z,6.75
2022-11-28T03:26:09.673Z,6.53
2022-11-28T03:29:00.553Z,8.15
2022-11-28T03:31:55.980Z,8.48
2022-11-28T03:34:31.415Z,7.03
2022-11-28T03:37:08.526Z,8.98
2022-11-28T03:39:41.356Z,9.68
2022-11-28T03:42:19.701Z,10.50
2022-11-28T03:44:56.681Z,9.40
2022-11-28T03:47:32.705Z,9.25
2022-11-28T03:50:08.315Z,9.07
2022-11-28T03:52:51.501Z,9.43
2022-11-28T03:55:39.685Z,9.90
2022-11-28T03:58:19.806Z,9.15
2022-11-28T04:01:03.781Z,11.32
2022-11-28T04:03:59.861Z,8.38
2022-11-28T04:06:58.158Z,10.77
2022-11-28T04:09:37.839Z,10.90
2022-11-28T04:12:20.684Z,8.90
2022-11-28T04:14:57.505Z,9.38
2022-11-28T04:17:45.725Z,8.73
2022-11-28T04:20:25.469Z,11.23
2022-11-28T04:23:00.984Z,9.38
2022-11-28T04:25:32.955Z,7.53
2022-11-28T04:28:13.050Z,10.90
2022-11-28T04:30:46.206Z,9.27
2022-11-28T04:33:17.489Z,12.38
2022-11-28T04:35:52.783Z,9.35
2022-11-28T04:38:24.524Z,10.05
2022-11-28T04:41:00.311Z,10.13
2022-11-28T04:43:37.855Z,9.05
2022-11-28T04:46:13.335Z,10.63
2022-11-28T04:48:41.650Z,9.27
2022-11-28T04:52:02.128Z,11.35
2022-11-28T04:54:59.375Z,11.77
2022-11-28T04:57:37.774Z,9.63
2022-11-28T05:00:10.695Z,7.70
2022-11-28T05:02:40.780Z,10.13
2022-11-28T05:05:16.473Z,9.52
2022-11-28T05:07:43.408Z,12.65
2022-11-28T05:10:12.786Z,13.20
2022-11-28T05:12:40.095Z,11.27
2022-11-28T05:15:08.066Z,8.70
2022-11-28T05:17:40.480Z,11.90
2022-11-28T05:20:09.224Z,10.98
2022-11-28T05:22:35.927Z,10.38
2022-11-28T05:25:02.632Z,8.88
2022-11-28T05:27:29.659Z,10.07
2022-11-28T05:29:56.374Z,4.38
2022-11-28T05:32:23.109Z,9.85
2022-11-28T05:34:49.794Z,10.43
2022-11-28T05:37:16.630Z,10.43
2022-11-28T05:39:43.513Z,10.90
2022-11-28T05:42:10.448Z,10.63
2022-11-28T05:44:37.775Z,8.23
2022-11-28T05:47:04.612Z,8.55
2022-11-28T05:49:31.360Z,13.90
2022-11-28T05:51:58.456Z,7.45
2022-11-28T05:54:25.278Z,11.00
2022-11-28T05:56:52.041Z,9.20
2022-11-28T05:59:18.803Z,10.15
2022-11-28T06:01:45.621Z,8.73
2022-11-28T06:04:12.595Z,11.23
2022-11-28T06:06:39.415Z,12.52
2022-11-28T06:09:07.167Z,10.60
2022-11-28T06:11:34.862Z,8.93
2022-11-28T06:14:03.071Z,8.35
2022-11-28T06:16:31.561Z,9.15
2022-11-28T06:19:02.298Z,13.15
2022-11-28T06:21:30.611Z,12.23
2022-11-28T06:23:59.839Z,8.68
2022-11-28T06:26:28.704Z,10.35
2022-11-28T06:28:55.974Z,14.80
2022-11-28T06:31:30.136Z,11.73
2022-11-28T06:33:59.011Z,12.43
2022-11-28T06:36:27.325Z,15.35
2022-11-28T06:38:54.367Z,12.50
2022-11-28T06:41:22.928Z,11.40
2022-11-28T06:43:50.308Z,11.05
2022-11-28T06:46:20.781Z,15.57
2022-11-28T06:48:50.827Z,12.63
2022-11-28T06:51:19.084Z,14.93
2022-11-28T06:53:45.893Z,16.90
2022-11-28T06:56:17.948Z,11.38
2022-11-28T06:58:46.425Z,10.93
2022-11-28T07:01:19.294Z,12.18
2022-11-28T07:03:47.433Z,14.63
2022-11-28T07:06:17.075Z,13.23
2022-11-28T07:08:43.968Z,13.43
2022-11-28T07:11:22.231Z,15.90
2022-11-28T07:13:50.240Z,17.35
2022-11-28T07:16:23.463Z,17.25
2022-11-28T07:18:51.875Z,16.75
2022-11-28T07:21:20.350Z,16.70
2022-11-28T07:23:48.559Z,17.90
2022-11-28T07:26:19.285Z,16.10
2022-11-28T07:28:46.904Z,17.48
2022-11-28T07:31:27.999Z,17.45
2022-11-28T07:33:54.831Z,17.50
2022-11-28T07:36:28.012Z,21.55
2022-11-28T07:38:59.163Z,17.35
2022-11-28T07:41:27.695Z,21.67
2022-11-28T07:44:01.908Z,20.42
2022-11-28T07:46:31.641Z,19.15
2022-11-28T07:48:58.789Z,18.60
2022-11-28T07:51:31.356Z,20.90
2022-11-28T07:54:09.884Z,17.23
2022-11-28T07:57:10.923Z,20.38
2022-11-28T07:59:25.720Z,17.80
2022-11-28T08:01:53.840Z,21.67
2022-11-28T08:04:21.153Z,16.45
2022-11-28T08:06:47.967Z,16.35
2022-11-28T08:09:14.870Z,25.58
2022-11-28T08:11:42.969Z,21.40
2022-11-28T08:14:09.767Z,23.40
2022-11-28T08:16:37.019Z,20.90
2022-11-28T08:19:03.984Z,19.42
2022-11-28T08:21:34.332Z,23.10
2022-11-28T08:24:02.896Z,20.67
2022-11-28T08:26:32.373Z,19.67
2022-11-28T08:29:01.631Z,13.00
2022-11-28T08:31:35.842Z,22.35
2022-11-28T08:34:07.360Z,23.42
2022-11-28T08:36:34.424Z,21.55
2022-11-28T08:39:22.861Z,24.63
2022-11-28T08:41:49.823Z,13.57
2022-11-28T08:44:16.568Z,21.90
2022-11-28T08:46:43.390Z,21.98
2022-11-28T08:49:10.219Z,12.60
2022-11-28T08:51:37.419Z,21.20
2022-11-28T08:54:04.763Z,20.95
2022-11-28T08:56:32.011Z,18.98
2022-11-28T08:58:59.860Z,19.80
2022-11-28T09:01:27.720Z,15.43
2022-11-28T09:03:56.350Z,15.65
2022-11-28T09:06:24.339Z,12.90
2022-11-28T09:08:52.390Z,21.58
2022-11-28T09:11:21.935Z,23.20
2022-11-28T09:13:49.111Z,20.70
2022-11-28T09:16:17.229Z,23.30
2022-11-28T09:18:44.152Z,24.00
2022-11-28T09:21:14.284Z,21.65
2022-11-28T09:23:44.031Z,19.60
2022-11-28T09:26:24.217Z,21.25
2022-11-28T09:28:52.055Z,20.25
2022-11-28T09:31:20.100Z,23.30
2022-11-28T09:33:49.109Z,17.70
2022-11-28T09:36:21.911Z,23.98
2022-11-28T09:38:49.686Z,23.08
2022-11-28T09:41:28.123Z,25.35
2022-11-28T09:44:25.694Z,24.20
2022-11-28T09:49:44.610Z,21.98
2022-11-28T09:52:41.130Z,21.35
2022-11-28T09:55:16.517Z,22.08
2022-11-28T09:57:50.681Z,25.65
2022-11-28T10:00:23.732Z,21.48
2022-11-28T10:03:25.277Z,24.88
2022-11-28T10:06:33.682Z,23.73
2022-11-28T10:09:28.124Z,26.30
2022-11-28T10:12:30.227Z,23.35
2022-11-28T10:15:19.105Z,22.60
2022-11-28T10:18:11.248Z,25.00
2022-11-28T10:20:44.670Z,21.40
2022-11-28T10:23:29.926Z,24.65
2022-11-28T10:26:22.008Z,21.20
2022-11-28T10:28:55.498Z,22.27
2022-11-28T10:31:39.038Z,27.02
2022-11-28T10:34:20.596Z,25.17
2022-11-28T10:37:26.627Z,23.33
2022-11-28T10:39:56.088Z,22.35
2022-11-28T10:42:41.873Z,21.02
2022-11-28T10:45:42.521Z,24.02
2022-11-28T10:48:40.872Z,15.93
2022-11-28T10:51:35.714Z,21.90
2022-11-28T10:54:18.188Z,23.50
2022-11-28T10:57:04.207Z,25.42
2022-11-28T11:00:02.716Z,15.88
2022-11-28T11:02:48.371Z,19.20
2022-11-28T11:05:25.564Z,23.15
2022-11-28T11:07:58.532Z,20.30
2022-11-28T11:10:49.336Z,23.63
2022-11-28T11:13:19.608Z,25.58
2022-11-28T11:15:59.830Z,31.52
2022-11-28T11:18:36.327Z,29.10
2022-11-28T11:21:29.508Z,28.05
2022-11-28T11:24:18.231Z,22.23
2022-11-28T11:26:48.918Z,10.02
2022-11-28T11:29:31.510Z,20.98
2022-11-28T11:32:04.268Z,27.35
2022-11-28T11:34:42.702Z,25.80
2022-11-28T11:37:37.632Z,22.35
2022-11-28T11:40:26.855Z,21.35
2022-11-28T11:43:00.116Z,26.45
2022-11-28T11:45:35.262Z,21.98
2022-11-28T11:48:03.957Z,18.88
2022-11-28T11:50:32.924Z,25.58
2022-11-28T11:53:10.355Z,27.95
2022-11-28T11:55:53.662Z,25.92
2022-11-28T11:58:33.275Z,27.30
2022-11-28T12:01:02.423Z,22.90
2022-11-28T12:03:48.674Z,29.02
2022-11-28T12:06:28.887Z,31.77
2022-11-28T12:09:17.156Z,31.08
2022-11-28T12:11:54.132Z,20.40
2022-11-28T12:14:31.472Z,24.65
2022-11-28T12:17:47.907Z,22.52
2022-11-28T12:20:47.497Z,36.97
2022-11-28T12:23:45.320Z,28.60
2022-11-28T12:26:21.173Z,26.92
2022-11-28T12:32:29.582Z,32.58
2022-11-28T12:35:24.301Z,35.08
2022-11-28T12:38:13.528Z,42.10
2022-11-28T12:41:30.704Z,28.27
2022-11-28T12:44:55.030Z,45.70
2022-11-28T12:50:03.531Z,28.65
2022-11-28T12:52:59.905Z,47.60
2022-11-28T12:56:09.985Z,35.22
2022-11-28T13:01:36.413Z,31.88
2022-11-28T13:07:33.825Z,51.47
2022-11-28T13:10:26.849Z,54.85
2022-11-28T13:13:23.867Z,51.70
2022-11-28T13:16:08.021Z,63.42
2022-11-28T13:18:50.080Z,68.03
2022-11-28T13:21:46.107Z,59.67
2022-11-28T13:24:18.869Z,70.25
2022-11-28T13:27:17.225Z,60.70
2022-11-28T13:30:06.899Z,64.72
2022-11-28T13:32:48.584Z,75.90
2022-11-28T13:35:19.445Z,70.55
2022-11-28T13:42:05.986Z,69.40
2022-11-28T13:44:29.421Z,64.75
2022-11-28T13:46:56.769Z,64.25
2022-11-28T13:49:29.609Z,63.90
2022-11-28T13:52:25.373Z,68.78
2022-11-28T13:54:55.975Z,65.05
2022-11-28T13:57:26.205Z,70.65
2022-11-28T14:00:07.161Z,67.40
2022-11-28T14:02:54.677Z,65.43
2022-11-28T14:05:41.700Z,68.28
2022-11-28T14:08:27.218Z,72.15
2022-11-28T14:11:34.420Z,68.70
2022-11-28T14:14:15.712Z,80.70
2022-11-28T14:16:57.480Z,64.05
2022-11-28T14:19:55.062Z,85.05
2022-11-28T14:22:46.988Z,72.80
2022-11-28T14:25:31.630Z,71.95
2022-11-28T14:28:14.770Z,73.72
2022-11-28T14:30:45.433Z,71.22
2022-11-28T14:33:42.984Z,69.32
2022-11-28T14:36:30.694Z,88.20
2022-11-28T14:39:16.794Z,64.78
2022-11-28T14:42:02.516Z,75.82
2022-11-28T14:44:57.169Z,84.65
2022-11-28T14:47:23.835Z,75.18
2022-11-28T14:50:06.051Z,61.38
2022-11-28T14:52:44.450Z,92.20
2022-11-28T14:55:12.550Z,81.40
2022-11-28T14:58:04.188Z,82.20
2022-11-28T15:00:56.065Z,80.97
2022-11-28T15:03:43.908Z,81.60
2022-11-28T15:06:38.675Z,79.55
2022-11-28T15:09:32.927Z,76.97
2022-11-28T15:12:37.620Z,86.93
2022-11-28T15:15:07.994Z,80.78
2022-11-28T15:17:35.307Z,78.38
2022-11-28T15:20:27.823Z,82.30
2022-11-28T15:22:55.010Z,71.72
2022-11-28T15:25:35.649Z,80.18
2022-11-28T15:28:20.564Z,68.68
2022-11-28T15:30:52.900Z,73.43
2022-11-28T15:33:21.695Z,83.85
2022-11-28T15:36:11.885Z,74.00
2022-11-28T15:38:42.950Z,72.80
2022-11-28T15:41:10.122Z,76.45
2022-11-28T15:43:43.994Z,70.63
2022-11-28T15:46:27.108Z,76.32
2022-11-28T15:48:53.921Z,68.90
2022-11-28T15:51:33.896Z,64.28
2022-11-28T15:54:03.380Z,75.00
2022-11-28T15:56:30.271Z,71.97
2022-11-28T15:58:57.172Z,75.05
2022-11-28T16:01:27.711Z,80.07
2022-11-28T16:04:24.048Z,73.38
2022-11-28T16:06:54.859Z,67.60
2022-11-28T16:09:34.976Z,71.55
2022-11-28T16:12:05.168Z,67.68
2022-11-28T16:14:37.646Z,74.93
2022-11-28T16:17:18.029Z,67.43
2022-11-28T16:19:46.023Z,66.15
2022-11-28T16:22:20.620Z,62.00
2022-11-28T16:24:56.710Z,63.00
2022-11-28T16:27:53.214Z,69.03
2022-11-28T16:30:36.877Z,68.85
2022-11-28T16:33:42.261Z,69.78
2022-11-28T16:36:37.413Z,75.82
2022-11-28T16:39:10.274Z,64.30
2022-11-28T16:41:48.007Z,66.20
2022-11-28T16:44:19.904Z,68.32
2022-11-28T16:46:56.754Z,68.03
2022-11-28T16:49:54.202Z,66.00
2022-11-28T16:54:55.442Z,66.50
2022-11-28T16:57:26.530Z,69.68
2022-11-28T16:59:57.024Z,64.68
2022-11-28T17:02:26.921Z,65.47
2022-11-28T17:04:54.312Z,69.75
2022-11-28T17:07:24.521Z,70.03
2022-11-28T17:09:51.469Z,70.28
2022-11-28T17:12:38.908Z,62.78
2022-11-28T17:15:08.792Z,67.50
2022-11-28T17:17:36.458Z,65.32
2022-11-28T17:20:03.683Z,67.45
2022-11-28T17:22:45.481Z,61.42
2022-11-28T17:25:18.950Z,51.60
2022-11-28T17:27:48.114Z,59.65
2022-11-28T17:30:17.882Z,47.95
2022-11-28T17:32:47.098Z,65.35
2022-11-28T17:35:21.332Z,49.58
2022-11-28T17:37:48.215Z,50.28
2022-11-28T17:40:33.060Z,52.40
2022-11-28T17:45:31.256Z,51.63
2022-11-28T17:47:58.793Z,59.65
2022-11-28T17:50:25.621Z,50.30
2022-11-28T17:52:52.635Z,56.88
2022-11-28T17:55:20.683Z,65.72
2022-11-28T17:57:47.903Z,58.97
2022-11-28T18:00:15.575Z,58.10
2022-11-28T18:02:43.898Z,53.55
2022-11-28T18:05:11.012Z,57.47
2022-11-28T18:07:39.758Z,65.45
2022-11-28T18:10:11.008Z,56.20
2022-11-28T18:12:39.075Z,73.72
2022-11-28T18:15:08.070Z,58.20
2022-11-28T18:17:35.415Z,62.67
2022-11-28T18:20:03.647Z,52.15
2022-11-28T18:22:30.598Z,46.47
2022-11-28T18:24:57.739Z,52.60
2022-11-28T18:27:24.679Z,57.50
2022-11-28T18:29:51.850Z,52.03
2022-11-28T18:32:18.926Z,57.67
2022-11-28T18:34:47.039Z,48.05
2022-11-28T18:37:13.932Z,30.08
2022-11-28T18:39:40.805Z,48.92
2022-11-28T18:42:07.634Z,59.28
2022-11-28T18:44:34.650Z,54.85
2022-11-28T18:47:01.545Z,47.03
2022-11-28T18:49:28.539Z,23.75
2022-11-28T18:51:56.716Z,48.85
2022-11-28T18:54:23.634Z,39.55
2022-11-28T18:56:50.400Z,49.60
2022-11-28T18:59:17.914Z,58.40
2022-11-28T19:01:44.847Z,49.45
2022-11-28T19:04:13.568Z,49.92
2022-11-28T19:06:42.942Z,42.25
2022-11-28T19:09:15.259Z,48.10
2022-11-28T19:11:43.618Z,52.00
2022-11-28T19:14:19.647Z,57.08
2022-11-28T19:16:48.429Z,52.83
2022-11-28T19:19:17.637Z,38.08
2022-11-28T19:21:45.439Z,38.42
2022-11-28T19:24:13.070Z,32.83
2022-11-28T19:26:40.092Z,55.97
2022-11-28T19:29:07.853Z,49.20
2022-11-28T19:31:38.384Z,24.80
2022-11-28T19:34:11.349Z,27.42
2022-11-28T19:36:42.031Z,38.47
2022-11-28T19:39:20.111Z,33.90
2022-11-28T19:41:47.425Z,53.08
2022-11-28T19:44:15.639Z,53.17
2022-11-28T19:46:43.055Z,59.85
2022-11-28T19:49:21.346Z,56.15
2022-11-28T19:51:50.379Z,56.60
2022-11-28T19:54:19.693Z,41.00
2022-11-28T19:56:47.546Z,35.05
2022-11-28T19:59:14.780Z,43.65
2022-11-28T20:01:42.485Z,43.38
2022-11-28T20:04:14.285Z,52.58
2022-11-28T20:06:43.163Z,56.25
2022-11-28T20:09:12.668Z,30.50
2022-11-28T20:11:43.544Z,49.67
2022-11-28T20:14:18.137Z,62.22
2022-11-28T20:16:46.417Z,64.22
2022-11-28T20:19:15.407Z,63.03
2022-11-28T20:21:44.997Z,42.60
2022-11-28T20:24:12.063Z,75.60
2022-11-28T20:26:43.281Z,74.45
2022-11-28T20:29:18.224Z,64.97
2022-11-28T20:31:47.901Z,67.30
2022-11-28T20:34:18.613Z,68.18
2022-11-28T20:36:51.899Z,67.95
2022-11-28T20:39:19.880Z,68.13
2022-11-28T20:41:46.795Z,74.65
2022-11-28T20:44:13.647Z,72.53
2022-11-28T20:46:40.698Z,72.80
2022-11-28T20:49:07.814Z,69.22
2022-11-28T20:51:36.134Z,62.13
2022-11-28T20:54:05.596Z,68.40
2022-11-28T20:56:57.928Z,80.10
2022-11-28T20:59:24.838Z,78.30
2022-11-28T21:01:51.588Z,64.95
2022-11-28T21:04:19.207Z,67.90
2022-11-28T21:06:48.968Z,69.00
2022-11-28T21:09:18.025Z,76.38
2022-11-28T21:12:01.024Z,75.03
2022-11-28T21:14:29.323Z,68.72
2022-11-28T21:16:58.099Z,62.53
2022-11-28T21:19:24.962Z,70.88
2022-11-28T21:21:51.825Z,71.78
2022-11-28T21:24:18.707Z,81.68
2022-11-28T21:26:51.373Z,80.57
2022-11-28T21:29:20.933Z,68.20
2022-11-28T21:31:47.860Z,74.78
2022-11-28T21:34:16.679Z,85.88
2022-11-28T21:36:44.509Z,71.38
2022-11-28T21:39:19.770Z,74.80
2022-11-28T21:41:46.841Z,72.32
2022-11-28T21:44:13.939Z,75.53
2022-11-28T21:46:40.933Z,77.15
2022-11-28T21:49:07.953Z,83.47
2022-11-28T21:51:39.096Z,82.88
2022-11-28T21:54:06.117Z,75.40
2022-11-28T21:56:33.608Z,76.00
2022-11-28T21:59:00.696Z,76.97
2022-11-28T22:01:28.479Z,78.88
2022-11-28T22:04:00.740Z,77.57
2022-11-28T22:06:29.410Z,80.05
2022-11-28T22:08:56.491Z,67.93
2022-11-28T22:11:24.182Z,74.32
2022-11-28T22:13:52.725Z,74.15
2022-11-28T22:16:21.037Z,78.97
2022-11-28T22:18:50.934Z,81.60
2022-11-28T22:24:06.367Z,76.65
2022-11-28T22:26:34.140Z,64.93
2022-11-28T22:29:04.184Z,73.40
2022-11-28T22:31:32.391Z,75.85
2022-11-28T22:33:59.248Z,76.32
2022-11-28T22:36:26.210Z,80.63
2022-11-28T22:38:58.902Z,71.80
2022-11-28T22:41:29.268Z,71.20
2022-11-28T22:44:01.852Z,74.82
2022-11-28T22:46:32.256Z,70.10
2022-11-28T22:49:01.278Z,83.72
2022-11-28T22:51:31.320Z,70.65
2022-11-28T22:54:01.886Z,77.22
2022-11-28T22:56:32.350Z,69.20
2022-11-28T22:59:00.894Z,67.13
2022-11-28T23:01:31.147Z,79.05
2022-11-28T23:03:59.763Z,77.65
2022-11-28T23:06:30.633Z,71.20
2022-11-28T23:09:01.416Z,77.20
2022-11-28T23:11:33.119Z,70.93
2022-11-28T23:14:02.237Z,85.63
2022-11-28T23:16:38.814Z,82.57
2022-11-28T23:19:14.592Z,86.70
2022-11-28T23:21:45.353Z,83.22
2022-11-28T23:24:17.531Z,88.57
2022-11-28T23:26:45.877Z,85.00
2022-11-28T23:29:14.587Z,95.80
2022-11-28T23:31:43.806Z,90.05
2022-11-28T23:34:11.816Z,84.25
2022-11-28T23:36:46.245Z,71.50
2022-11-28T23:39:20.466Z,76.60
2022-11-28T23:41:48.014Z,79.78
2022-11-28T23:44:16.992Z,83.25
2022-11-28T23:46:44.593Z,85.68
2022-11-28T23:49:12.323Z,149.02
2022-11-28T23:51:40.645Z,127.13
2022-11-28T23:54:08.963Z,98.07
2022-11-28T23:56:38.500Z,93.03
2022-11-28T23:59:08.364Z,94.53
